»·PEaware :: SWA2148 KBUR-KOAK

SWA2148 :: KBUR-KOAK

FLIGHT INFORMATION

Flight Status: Arrived
Operator:
Southwest Airlines
More flights by this operator :: More flights under this callsign
Pilot: Kaleb W. (11686)
Aircraft: BOEING 737-800
(B738)
More flights by this aircraft type
Origin: KBUR Bob Hope-Burbank
United States
Destination: KOAK Metro Oakland Intl
United States
More flights between these airports :: More routes between these airports
Route: +OROSZ2 COREZ RGOOD EMZOH3
File this flight plan on PilotEdge
Remarks: RMK / SIMBRIEF
Altitude:
(Current/Filed)
36,000ft
Speed:
(Current/Filed)
447kts
Departed: 02-Jul-19 06:05 PM
Arrived: 02-Jul-19 06:58 PM
Distance/Time
Traveled:
282nm/0:52
Distance/Time
To Go:
Arrived

Flight Plot

Page will automatically refresh every two minutes.

Flight plan parsing failed; only flown route is shown


Map Options




Map Legend


Flown Route
Filed Route
Departure Airport
Arrival Airport
Navaid (VOR, NDB)
Fix

Horizontal Profiles

Position Reports

Time Latitude Longitude Heading Altitude Ground
Speed
02-Jul-19 17:40 34.196809 -118.351970 179 700ft 0kts
02-Jul-19 17:41 34.196809 -118.351970 179 700ft 0kts
02-Jul-19 17:42 34.196809 -118.351970 179 700ft 0kts
02-Jul-19 17:43 34.196809 -118.351970 179 700ft 0kts
02-Jul-19 17:44 34.196809 -118.351970 179 700ft 0kts
02-Jul-19 17:45 34.196809 -118.351970 179 700ft 0kts
02-Jul-19 17:46 34.196809 -118.351970 179 700ft 0kts
02-Jul-19 17:47 34.196809 -118.351970 179 700ft 0kts
02-Jul-19 17:48 34.196809 -118.351970 179 700ft 0kts
02-Jul-19 17:49 34.196809 -118.351970 179 700ft 0kts
02-Jul-19 17:50 34.196809 -118.351970 179 700ft 0kts
02-Jul-19 17:51 34.196809 -118.351970 179 700ft 0kts
02-Jul-19 17:52 34.196809 -118.351970 179 700ft 0kts
02-Jul-19 17:53 34.196809 -118.351970 179 700ft 0kts
02-Jul-19 17:54 34.196809 -118.351970 179 700ft 0kts
02-Jul-19 17:55 34.196809 -118.351970 179 700ft 0kts
02-Jul-19 17:56 34.196810 -118.351970 179 700ft 0kts
02-Jul-19 17:57 34.197167 -118.351741 252 700ft 2kts
02-Jul-19 17:58 34.197183 -118.351551 271 700ft 0kts
02-Jul-19 17:59 34.197183 -118.351551 271 700ft 0kts
02-Jul-19 18:00 34.197220 -118.353941 273 704ft 0kts
02-Jul-19 18:01 34.199779 -118.355683 346 714ft 33kts
02-Jul-19 18:01 34.207119 -118.357693 347 747ft 26kts
02-Jul-19 18:02 34.211575 -118.359149 320 767ft 0kts
02-Jul-19 18:04 34.211719 -118.359330 305 768ft 8kts
02-Jul-19 18:04 34.194273 -118.355754 175 1183ft 161kts
02-Jul-19 18:05 34.151163 -118.391729 222 3457ft 238kts
02-Jul-19 18:07 34.138573 -118.474709 320 7720ft 281kts
02-Jul-19 18:07 34.195561 -118.517382 326 10596ft 302kts
02-Jul-19 18:08 34.272723 -118.572755 326 13490ft 334kts
02-Jul-19 18:09 34.354515 -118.631494 326 16665ft 347kts
02-Jul-19 18:10 34.441209 -118.683946 326 19483ft 360kts
02-Jul-19 18:11 34.528783 -118.746222 326 22088ft 373kts
02-Jul-19 18:12 34.619538 -118.810493 326 24422ft 385kts
02-Jul-19 18:13 34.712979 -118.876798 326 26575ft 395kts
02-Jul-19 18:14 34.809134 -118.945195 326 28514ft 405kts
02-Jul-19 18:15 34.907493 -119.015350 326 30240ft 416kts
02-Jul-19 18:16 35.007938 -119.087265 325 32059ft 420kts
02-Jul-19 18:17 35.107663 -119.158911 324 33995ft 415kts
02-Jul-19 18:18 35.206645 -119.230120 324 35725ft 410kts
02-Jul-19 18:19 35.307312 -119.302784 325 35923ft 424kts
02-Jul-19 18:20 35.408735 -119.376149 325 35921ft 423kts
02-Jul-19 18:21 35.510180 -119.449770 325 35915ft 423kts
02-Jul-19 18:22 35.605275 -119.532779 315 35913ft 418kts
02-Jul-19 18:23 35.694519 -119.624462 316 35912ft 418kts
02-Jul-19 18:24 35.783911 -119.716001 315 35928ft 418kts
02-Jul-19 18:25 35.873328 -119.807812 315 35936ft 418kts
02-Jul-19 18:26 35.959273 -119.903875 311 35932ft 416kts
02-Jul-19 18:27 36.042539 -120.002869 312 35927ft 416kts
02-Jul-19 18:28 36.125829 -120.101828 312 35925ft 416kts
02-Jul-19 18:29 36.208097 -120.199875 312 35925ft 409kts
02-Jul-19 18:30 36.290009 -120.297807 312 35847ft 412kts
02-Jul-19 18:31 36.371667 -120.395684 312 33344ft 405kts
02-Jul-19 18:32 36.453405 -120.493995 312 30579ft 396kts
02-Jul-19 18:33 36.529442 -120.585776 313 28109ft 376kts
02-Jul-19 18:34 36.609422 -120.675492 315 26324ft 379kts
02-Jul-19 18:35 36.685550 -120.759845 315 24677ft 355kts
02-Jul-19 18:36 36.760217 -120.842861 315 23078ft 362kts
02-Jul-19 18:37 36.832817 -120.923455 316 21527ft 337kts
02-Jul-19 18:38 36.904021 -121.002482 316 19993ft 343kts
02-Jul-19 18:39 36.972859 -121.079017 316 18493ft 320kts
02-Jul-19 18:40 37.041781 -121.155878 315 16954ft 328kts
02-Jul-19 18:41 37.108233 -121.230196 315 15532ft 331kts
02-Jul-19 18:42 37.175312 -121.307124 314 14015ft 319kts
02-Jul-19 18:43 37.238463 -121.380689 315 12621ft 317kts
02-Jul-19 18:44 37.302449 -121.455216 315 10878ft 311kts
02-Jul-19 18:45 37.364425 -121.527555 315 9277ft 285kts
02-Jul-19 18:46 37.419696 -121.591172 315 8147ft 264kts
02-Jul-19 18:47 37.466368 -121.660046 303 6998ft 255kts
02-Jul-19 18:48 37.507847 -121.733255 304 6872ft 252kts
02-Jul-19 18:49 37.536784 -121.811840 276 5565ft 250kts
02-Jul-19 18:50 37.545991 -121.897907 277 5170ft 239kts
02-Jul-19 18:51 37.554778 -121.973472 278 4144ft 209kts
02-Jul-19 18:52 37.577791 -122.036995 318 3514ft 203kts
02-Jul-19 18:53 37.616051 -122.086510 307 2470ft 181kts
02-Jul-19 18:54 37.646387 -122.131672 306 1704ft 141kts
02-Jul-19 18:55 37.671966 -122.169693 306 940ft 136kts
02-Jul-19 18:56 37.696827 -122.207215 305 241ft 139kts
02-Jul-19 18:57 37.713779 -122.231172 342 11ft 13kts
02-Jul-19 18:58 37.714282 -122.231375 341 11ft 0kts
02-Jul-19 18:59 37.714934 -122.231171 65 11ft 14kts
02-Jul-19 19:00 37.711331 -122.224136 42 11ft 24kts
02-Jul-19 19:01 37.714583 -122.220118 47 11ft 0kts
02-Jul-19 19:02 37.714856 -122.217229 147 11ft 14kts

Navigation Log

Ident Type
Flight plan parsing failed, navigation log unavailable